sensor_id;sensor_type;location;lat;lon;timestamp;P1;durP1;ratioP1;P2;durP2;ratioP2
44824;SDS011;30542;47.928;2.138;2023-05-19T00:03:18;3.38;;;1.92;;
44824;SDS011;30542;47.928;2.138;2023-05-19T00:08:21;2.08;;;1.50;;
44824;SDS011;30542;47.928;2.138;2023-05-19T00:13:23;3.10;;;1.73;;
44824;SDS011;30542;47.928;2.138;2023-05-19T00:18:24;3.38;;;1.75;;
44824;SDS011;30542;47.928;2.138;2023-05-19T00:23:25;3.00;;;1.70;;
44824;SDS011;30542;47.928;2.138;2023-05-19T00:28:25;3.05;;;1.58;;
44824;SDS011;30542;47.928;2.138;2023-05-19T00:33:26;4.10;;;2.10;;
44824;SDS011;30542;47.928;2.138;2023-05-19T00:38:26;2.87;;;2.03;;
44824;SDS011;30542;47.928;2.138;2023-05-19T00:43:26;2.92;;;2.13;;
44824;SDS011;30542;47.928;2.138;2023-05-19T00:48:27;2.90;;;1.77;;
44824;SDS011;30542;47.928;2.138;2023-05-19T00:53:27;2.80;;;1.58;;
44824;SDS011;30542;47.928;2.138;2023-05-19T00:58:29;4.30;;;1.77;;
44824;SDS011;30542;47.928;2.138;2023-05-19T01:03:32;2.33;;;1.55;;
44824;SDS011;30542;47.928;2.138;2023-05-19T01:08:37;2.25;;;1.52;;
44824;SDS011;30542;47.928;2.138;2023-05-19T01:13:38;3.00;;;1.45;;
44824;SDS011;30542;47.928;2.138;2023-05-19T01:18:40;2.33;;;1.43;;
44824;SDS011;30542;47.928;2.138;2023-05-19T01:23:51;1.98;;;1.42;;
44824;SDS011;30542;47.928;2.138;2023-05-19T01:34:15;3.03;;;1.42;;
44824;SDS011;30542;47.928;2.138;2023-05-19T01:39:16;2.42;;;1.27;;
44824;SDS011;30542;47.928;2.138;2023-05-19T01:44:18;1.95;;;1.30;;
44824;SDS011;30542;47.928;2.138;2023-05-19T01:49:21;2.05;;;1.52;;
44824;SDS011;30542;47.928;2.138;2023-05-19T01:54:21;3.27;;;1.33;;
44824;SDS011;30542;47.928;2.138;2023-05-19T01:59:27;2.47;;;1.30;;
44824;SDS011;30542;47.928;2.138;2023-05-19T02:04:50;1.58;;;1.38;;
44824;SDS011;30542;47.928;2.138;2023-05-19T02:10:16;1.88;;;1.13;;
44824;SDS011;30542;47.928;2.138;2023-05-19T02:15:24;1.55;;;1.08;;
44824;SDS011;30542;47.928;2.138;2023-05-19T02:20:28;1.77;;;1.00;;
44824;SDS011;30542;47.928;2.138;2023-05-19T02:25:28;3.30;;;1.50;;
44824;SDS011;30542;47.928;2.138;2023-05-19T02:30:28;3.05;;;1.65;;
44824;SDS011;30542;47.928;2.138;2023-05-19T02:35:30;1.40;;;1.23;;
44824;SDS011;30542;47.928;2.138;2023-05-19T02:40:32;1.92;;;1.20;;
44824;SDS011;30542;47.928;2.138;2023-05-19T02:45:33;2.60;;;1.38;;
44824;SDS011;30542;47.928;2.138;2023-05-19T02:50:33;2.25;;;1.27;;
44824;SDS011;30542;47.928;2.138;2023-05-19T02:55:33;2.23;;;1.40;;
44824;SDS011;30542;47.928;2.138;2023-05-19T03:00:34;2.10;;;1.37;;
44824;SDS011;30542;47.928;2.138;2023-05-19T03:05:34;1.40;;;1.00;;
44824;SDS011;30542;47.928;2.138;2023-05-19T03:10:35;1.77;;;1.25;;
44824;SDS011;30542;47.928;2.138;2023-05-19T03:15:35;1.97;;;1.40;;
44824;SDS011;30542;47.928;2.138;2023-05-19T03:20:36;3.25;;;1.48;;
44824;SDS011;30542;47.928;2.138;2023-05-19T03:25:37;2.10;;;1.20;;
44824;SDS011;30542;47.928;2.138;2023-05-19T03:30:37;1.40;;;1.30;;
44824;SDS011;30542;47.928;2.138;2023-05-19T03:35:37;2.03;;;1.13;;
44824;SDS011;30542;47.928;2.138;2023-05-19T03:40:38;2.50;;;1.33;;
44824;SDS011;30542;47.928;2.138;2023-05-19T03:45:40;1.60;;;1.08;;
44824;SDS011;30542;47.928;2.138;2023-05-19T03:50:40;1.40;;;1.15;;
44824;SDS011;30542;47.928;2.138;2023-05-19T03:55:43;1.23;;;1.00;;
44824;SDS011;30542;47.928;2.138;2023-05-19T04:00:43;1.27;;;1.17;;
44824;SDS011;30542;47.928;2.138;2023-05-19T04:05:44;1.90;;;1.07;;
44824;SDS011;30542;47.928;2.138;2023-05-19T04:10:44;1.85;;;1.58;;
44824;SDS011;30542;47.928;2.138;2023-05-19T04:15:44;1.97;;;1.30;;
44824;SDS011;30542;47.928;2.138;2023-05-19T04:20:45;1.40;;;1.00;;
44824;SDS011;30542;47.928;2.138;2023-05-19T04:25:45;2.33;;;1.23;;
44824;SDS011;30542;47.928;2.138;2023-05-19T04:30:47;2.25;;;1.27;;
44824;SDS011;30542;47.928;2.138;2023-05-19T04:35:47;2.05;;;1.02;;
44824;SDS011;30542;47.928;2.138;2023-05-19T04:40:49;1.98;;;1.20;;
44824;SDS011;30542;47.928;2.138;2023-05-19T04:45:50;2.30;;;1.00;;
44824;SDS011;30542;47.928;2.138;2023-05-19T04:50:51;2.40;;;1.20;;
44824;SDS011;30542;47.928;2.138;2023-05-19T04:55:52;3.42;;;1.00;;
44824;SDS011;30542;47.928;2.138;2023-05-19T05:00:52;2.80;;;1.27;;
44824;SDS011;30542;47.928;2.138;2023-05-19T05:05:57;2.38;;;1.42;;
44824;SDS011;30542;47.928;2.138;2023-05-19T05:10:57;3.70;;;1.50;;
44824;SDS011;30542;47.928;2.138;2023-05-19T05:15:58;1.77;;;1.55;;
44824;SDS011;30542;47.928;2.138;2023-05-19T05:20:59;5.22;;;1.52;;
44824;SDS011;30542;47.928;2.138;2023-05-19T05:26:00;3.10;;;1.48;;
44824;SDS011;30542;47.928;2.138;2023-05-19T05:31:08;3.60;;;1.75;;
44824;SDS011;30542;47.928;2.138;2023-05-19T05:36:08;3.87;;;1.73;;
44824;SDS011;30542;47.928;2.138;2023-05-19T05:41:09;4.73;;;2.40;;
44824;SDS011;30542;47.928;2.138;2023-05-19T05:46:09;2.93;;;2.40;;
44824;SDS011;30542;47.928;2.138;2023-05-19T05:51:09;93.90;;;23.00;;
44824;SDS011;30542;47.928;2.138;2023-05-19T05:56:10;56.78;;;17.02;;
44824;SDS011;30542;47.928;2.138;2023-05-19T06:01:11;28.75;;;8.52;;
44824;SDS011;30542;47.928;2.138;2023-05-19T06:06:12;24.33;;;8.15;;
44824;SDS011;30542;47.928;2.138;2023-05-19T06:11:12;17.55;;;6.38;;
44824;SDS011;30542;47.928;2.138;2023-05-19T06:16:12;16.57;;;6.50;;
44824;SDS011;30542;47.928;2.138;2023-05-19T06:21:13;16.37;;;6.13;;
44824;SDS011;30542;47.928;2.138;2023-05-19T06:26:13;16.43;;;5.03;;
44824;SDS011;30542;47.928;2.138;2023-05-19T06:31:14;13.85;;;5.13;;
44824;SDS011;30542;47.928;2.138;2023-05-19T06:36:15;11.80;;;4.22;;
44824;SDS011;30542;47.928;2.138;2023-05-19T06:41:15;12.53;;;4.87;;
44824;SDS011;30542;47.928;2.138;2023-05-19T06:46:15;10.90;;;4.30;;
44824;SDS011;30542;47.928;2.138;2023-05-19T06:51:16;11.55;;;4.18;;
44824;SDS011;30542;47.928;2.138;2023-05-19T06:56:20;9.23;;;3.95;;
44824;SDS011;30542;47.928;2.138;2023-05-19T07:01:21;9.13;;;4.03;;
44824;SDS011;30542;47.928;2.138;2023-05-19T07:06:22;9.20;;;3.80;;
44824;SDS011;30542;47.928;2.138;2023-05-19T07:11:22;9.97;;;3.93;;
44824;SDS011;30542;47.928;2.138;2023-05-19T07:16:22;9.10;;;3.45;;
44824;SDS011;30542;47.928;2.138;2023-05-19T07:21:23;7.40;;;3.17;;
44824;SDS011;30542;47.928;2.138;2023-05-19T07:26:23;7.87;;;3.63;;
44824;SDS011;30542;47.928;2.138;2023-05-19T07:31:23;7.90;;;3.22;;
44824;SDS011;30542;47.928;2.138;2023-05-19T07:36:24;8.05;;;3.92;;
44824;SDS011;30542;47.928;2.138;2023-05-19T07:41:25;6.43;;;3.57;;
44824;SDS011;30542;47.928;2.138;2023-05-19T07:46:25;5.67;;;3.20;;
44824;SDS011;30542;47.928;2.138;2023-05-19T07:51:25;4.40;;;3.03;;
44824;SDS011;30542;47.928;2.138;2023-05-19T07:56:26;5.60;;;2.90;;
44824;SDS011;30542;47.928;2.138;2023-05-19T08:01:26;6.45;;;3.33;;
44824;SDS011;30542;47.928;2.138;2023-05-19T08:06:27;5.00;;;2.80;;
44824;SDS011;30542;47.928;2.138;2023-05-19T08:11:28;5.00;;;3.13;;
44824;SDS011;30542;47.928;2.138;2023-05-19T08:16:29;5.65;;;2.70;;
44824;SDS011;30542;47.928;2.138;2023-05-19T08:21:30;5.38;;;3.22;;
44824;SDS011;30542;47.928;2.138;2023-05-19T08:26:33;6.40;;;3.33;;
44824;SDS011;30542;47.928;2.138;2023-05-19T08:31:34;5.55;;;2.42;;
44824;SDS011;30542;47.928;2.138;2023-05-19T08:36:34;5.47;;;2.87;;
44824;SDS011;30542;47.928;2.138;2023-05-19T08:41:34;4.47;;;2.97;;
44824;SDS011;30542;47.928;2.138;2023-05-19T08:46:34;3.87;;;2.50;;
44824;SDS011;30542;47.928;2.138;2023-05-19T08:51:38;4.10;;;2.78;;
44824;SDS011;30542;47.928;2.138;2023-05-19T08:56:58;4.28;;;2.47;;
44824;SDS011;30542;47.928;2.138;2023-05-19T09:02:00;5.05;;;2.60;;
44824;SDS011;30542;47.928;2.138;2023-05-19T09:07:01;3.75;;;2.40;;
44824;SDS011;30542;47.928;2.138;2023-05-19T09:12:03;3.85;;;2.60;;
44824;SDS011;30542;47.928;2.138;2023-05-19T09:17:03;4.28;;;2.40;;
44824;SDS011;30542;47.928;2.138;2023-05-19T09:22:04;5.43;;;2.50;;
44824;SDS011;30542;47.928;2.138;2023-05-19T09:27:05;4.93;;;2.22;;
44824;SDS011;30542;47.928;2.138;2023-05-19T09:32:05;3.60;;;2.75;;
44824;SDS011;30542;47.928;2.138;2023-05-19T09:37:06;3.83;;;2.58;;
44824;SDS011;30542;47.928;2.138;2023-05-19T09:42:06;3.75;;;2.40;;
44824;SDS011;30542;47.928;2.138;2023-05-19T09:47:08;4.13;;;2.33;;
44824;SDS011;30542;47.928;2.138;2023-05-19T09:52:08;2.55;;;2.13;;
44824;SDS011;30542;47.928;2.138;2023-05-19T09:57:09;3.63;;;2.40;;
44824;SDS011;30542;47.928;2.138;2023-05-19T10:02:11;2.78;;;1.85;;
44824;SDS011;30542;47.928;2.138;2023-05-19T10:07:15;2.90;;;2.17;;
44824;SDS011;30542;47.928;2.138;2023-05-19T10:12:16;3.10;;;2.20;;
44824;SDS011;30542;47.928;2.138;2023-05-19T10:17:17;4.20;;;1.80;;
44824;SDS011;30542;47.928;2.138;2023-05-19T10:22:17;2.78;;;1.85;;
44824;SDS011;30542;47.928;2.138;2023-05-19T10:27:18;2.50;;;1.93;;
44824;SDS011;30542;47.928;2.138;2023-05-19T10:32:20;3.22;;;1.90;;
44824;SDS011;30542;47.928;2.138;2023-05-19T10:37:45;2.50;;;2.10;;
44824;SDS011;30542;47.928;2.138;2023-05-19T10:48:13;2.95;;;2.35;;
44824;SDS011;30542;47.928;2.138;2023-05-19T10:53:18;2.42;;;1.58;;
44824;SDS011;30542;47.928;2.138;2023-05-19T11:03:43;2.92;;;1.88;;
44824;SDS011;30542;47.928;2.138;2023-05-19T11:08:51;2.55;;;2.20;;
44824;SDS011;30542;47.928;2.138;2023-05-19T11:14:05;2.90;;;1.77;;
44824;SDS011;30542;47.928;2.138;2023-05-19T11:19:05;3.50;;;1.97;;
44824;SDS011;30542;47.928;2.138;2023-05-19T11:24:08;3.20;;;1.83;;
44824;SDS011;30542;47.928;2.138;2023-05-19T11:29:09;2.78;;;1.73;;
44824;SDS011;30542;47.928;2.138;2023-05-19T11:34:09;1.95;;;1.48;;
44824;SDS011;30542;47.928;2.138;2023-05-19T11:39:10;2.30;;;1.55;;
44824;SDS011;30542;47.928;2.138;2023-05-19T11:44:11;2.55;;;2.13;;
44824;SDS011;30542;47.928;2.138;2023-05-19T11:49:11;2.20;;;2.00;;
44824;SDS011;30542;47.928;2.138;2023-05-19T11:54:12;3.10;;;1.60;;
44824;SDS011;30542;47.928;2.138;2023-05-19T11:59:12;1.70;;;1.60;;
44824;SDS011;30542;47.928;2.138;2023-05-19T12:04:13;1.90;;;1.60;;
44824;SDS011;30542;47.928;2.138;2023-05-19T12:09:13;2.77;;;1.50;;
44824;SDS011;30542;47.928;2.138;2023-05-19T12:14:14;1.77;;;1.30;;
44824;SDS011;30542;47.928;2.138;2023-05-19T12:19:14;1.90;;;1.70;;
44824;SDS011;30542;47.928;2.138;2023-05-19T12:24:14;1.93;;;1.33;;
44824;SDS011;30542;47.928;2.138;2023-05-19T12:29:15;3.00;;;1.80;;
44824;SDS011;30542;47.928;2.138;2023-05-19T12:34:16;2.05;;;1.70;;
44824;SDS011;30542;47.928;2.138;2023-05-19T12:39:16;2.13;;;1.80;;
44824;SDS011;30542;47.928;2.138;2023-05-19T12:44:16;2.77;;;2.00;;
44824;SDS011;30542;47.928;2.138;2023-05-19T12:49:17;2.38;;;1.58;;
44824;SDS011;30542;47.928;2.138;2023-05-19T12:54:18;1.87;;;1.50;;
44824;SDS011;30542;47.928;2.138;2023-05-19T12:59:23;2.65;;;2.05;;
44824;SDS011;30542;47.928;2.138;2023-05-19T13:04:24;2.15;;;1.60;;
44824;SDS011;30542;47.928;2.138;2023-05-19T13:09:25;1.83;;;1.67;;
44824;SDS011;30542;47.928;2.138;2023-05-19T13:14:26;1.67;;;1.58;;
44824;SDS011;30542;47.928;2.138;2023-05-19T13:19:27;2.77;;;1.50;;
44824;SDS011;30542;47.928;2.138;2023-05-19T13:24:27;1.80;;;1.60;;
44824;SDS011;30542;47.928;2.138;2023-05-19T13:29:27;2.50;;;1.67;;
44824;SDS011;30542;47.928;2.138;2023-05-19T13:34:28;1.93;;;1.70;;
44824;SDS011;30542;47.928;2.138;2023-05-19T13:39:28;1.67;;;1.57;;
44824;SDS011;30542;47.928;2.138;2023-05-19T13:44:28;1.70;;;1.60;;
44824;SDS011;30542;47.928;2.138;2023-05-19T13:49:29;1.95;;;1.55;;
44824;SDS011;30542;47.928;2.138;2023-05-19T13:54:29;1.75;;;1.65;;
44824;SDS011;30542;47.928;2.138;2023-05-19T13:59:30;1.45;;;1.17;;
44824;SDS011;30542;47.928;2.138;2023-05-19T14:04:30;1.98;;;1.70;;
44824;SDS011;30542;47.928;2.138;2023-05-19T14:09:31;1.75;;;1.50;;
44824;SDS011;30542;47.928;2.138;2023-05-19T14:14:31;2.25;;;1.50;;
44824;SDS011;30542;47.928;2.138;2023-05-19T14:19:32;1.92;;;1.75;;
44824;SDS011;30542;47.928;2.138;2023-05-19T14:24:33;2.40;;;1.80;;
44824;SDS011;30542;47.928;2.138;2023-05-19T14:29:33;1.88;;;1.60;;
44824;SDS011;30542;47.928;2.138;2023-05-19T14:34:34;1.70;;;1.60;;
44824;SDS011;30542;47.928;2.138;2023-05-19T14:39:34;3.33;;;1.53;;
44824;SDS011;30542;47.928;2.138;2023-05-19T14:44:35;2.40;;;1.60;;
44824;SDS011;30542;47.928;2.138;2023-05-19T14:49:36;1.65;;;1.52;;
44824;SDS011;30542;47.928;2.138;2023-05-19T14:54:36;2.13;;;1.30;;
44824;SDS011;30542;47.928;2.138;2023-05-19T14:59:37;1.48;;;1.27;;
44824;SDS011;30542;47.928;2.138;2023-05-19T15:04:37;1.77;;;1.30;;
44824;SDS011;30542;47.928;2.138;2023-05-19T15:09:38;1.45;;;1.35;;
44824;SDS011;30542;47.928;2.138;2023-05-19T15:14:38;2.50;;;1.40;;
44824;SDS011;30542;47.928;2.138;2023-05-19T15:19:38;2.92;;;1.58;;
44824;SDS011;30542;47.928;2.138;2023-05-19T15:24:40;1.23;;;1.13;;
44824;SDS011;30542;47.928;2.138;2023-05-19T15:29:41;1.50;;;1.40;;
44824;SDS011;30542;47.928;2.138;2023-05-19T15:34:41;1.97;;;1.77;;
44824;SDS011;30542;47.928;2.138;2023-05-19T15:39:41;1.77;;;1.67;;
44824;SDS011;30542;47.928;2.138;2023-05-19T15:44:42;1.40;;;1.17;;
44824;SDS011;30542;47.928;2.138;2023-05-19T15:49:44;2.28;;;1.50;;
44824;SDS011;30542;47.928;2.138;2023-05-19T15:54:45;1.80;;;1.50;;
44824;SDS011;30542;47.928;2.138;2023-05-19T15:59:47;1.50;;;1.38;;
44824;SDS011;30542;47.928;2.138;2023-05-19T16:04:47;1.48;;;1.38;;
44824;SDS011;30542;47.928;2.138;2023-05-19T16:09:48;1.93;;;1.47;;
44824;SDS011;30542;47.928;2.138;2023-05-19T16:14:49;1.10;;;1.00;;
44824;SDS011;30542;47.928;2.138;2023-05-19T16:19:49;1.75;;;1.40;;
44824;SDS011;30542;47.928;2.138;2023-05-19T16:24:49;1.40;;;1.10;;
44824;SDS011;30542;47.928;2.138;2023-05-19T16:29:50;1.30;;;1.20;;
44824;SDS011;30542;47.928;2.138;2023-05-19T16:34:50;1.53;;;1.40;;
44824;SDS011;30542;47.928;2.138;2023-05-19T16:39:51;1.60;;;1.50;;
44824;SDS011;30542;47.928;2.138;2023-05-19T16:44:51;1.60;;;1.20;;
44824;SDS011;30542;47.928;2.138;2023-05-19T16:49:52;1.30;;;1.20;;
44824;SDS011;30542;47.928;2.138;2023-05-19T16:54:52;1.43;;;1.10;;
44824;SDS011;30542;47.928;2.138;2023-05-19T16:59:52;1.50;;;1.20;;
44824;SDS011;30542;47.928;2.138;2023-05-19T17:04:53;1.38;;;1.10;;
44824;SDS011;30542;47.928;2.138;2023-05-19T17:09:54;1.38;;;1.27;;
44824;SDS011;30542;47.928;2.138;2023-05-19T17:14:54;1.45;;;1.35;;
44824;SDS011;30542;47.928;2.138;2023-05-19T17:19:55;1.25;;;1.15;;
44824;SDS011;30542;47.928;2.138;2023-05-19T17:24:56;1.20;;;1.10;;
44824;SDS011;30542;47.928;2.138;2023-05-19T17:29:56;1.50;;;0.98;;
44824;SDS011;30542;47.928;2.138;2023-05-19T17:34:57;1.80;;;1.23;;
44824;SDS011;30542;47.928;2.138;2023-05-19T17:39:57;1.40;;;1.30;;
44824;SDS011;30542;47.928;2.138;2023-05-19T17:44:57;1.10;;;1.00;;
44824;SDS011;30542;47.928;2.138;2023-05-19T17:49:57;1.40;;;1.30;;
44824;SDS011;30542;47.928;2.138;2023-05-19T17:54:58;1.10;;;1.00;;
44824;SDS011;30542;47.928;2.138;2023-05-19T17:59:59;1.63;;;1.38;;
44824;SDS011;30542;47.928;2.138;2023-05-19T18:04:59;1.70;;;1.02;;
44824;SDS011;30542;47.928;2.138;2023-05-19T18:10:00;2.13;;;1.35;;
44824;SDS011;30542;47.928;2.138;2023-05-19T18:15:03;1.40;;;1.30;;
44824;SDS011;30542;47.928;2.138;2023-05-19T18:20:05;1.38;;;1.23;;
44824;SDS011;30542;47.928;2.138;2023-05-19T18:25:06;1.70;;;1.13;;
44824;SDS011;30542;47.928;2.138;2023-05-19T18:30:07;2.00;;;1.20;;
44824;SDS011;30542;47.928;2.138;2023-05-19T18:35:07;1.27;;;1.20;;
44824;SDS011;30542;47.928;2.138;2023-05-19T18:40:08;1.08;;;0.98;;
44824;SDS011;30542;47.928;2.138;2023-05-19T18:45:09;1.58;;;1.23;;
44824;SDS011;30542;47.928;2.138;2023-05-19T18:50:09;1.30;;;1.10;;
44824;SDS011;30542;47.928;2.138;2023-05-19T18:55:10;1.30;;;1.20;;
44824;SDS011;30542;47.928;2.138;2023-05-19T19:00:10;1.20;;;1.10;;
44824;SDS011;30542;47.928;2.138;2023-05-19T19:05:12;1.42;;;1.25;;
44824;SDS011;30542;47.928;2.138;2023-05-19T19:10:12;1.20;;;1.10;;
44824;SDS011;30542;47.928;2.138;2023-05-19T19:15:14;1.20;;;1.05;;
44824;SDS011;30542;47.928;2.138;2023-05-19T19:20:14;1.17;;;1.03;;
44824;SDS011;30542;47.928;2.138;2023-05-19T19:25:14;1.40;;;1.30;;
44824;SDS011;30542;47.928;2.138;2023-05-19T19:30:15;1.40;;;1.30;;
44824;SDS011;30542;47.928;2.138;2023-05-19T19:35:15;1.83;;;1.10;;
44824;SDS011;30542;47.928;2.138;2023-05-19T19:40:16;1.40;;;1.30;;
44824;SDS011;30542;47.928;2.138;2023-05-19T19:45:16;1.43;;;1.33;;
44824;SDS011;30542;47.928;2.138;2023-05-19T19:50:17;0.95;;;0.95;;
44824;SDS011;30542;47.928;2.138;2023-05-19T19:55:17;1.20;;;1.10;;
44824;SDS011;30542;47.928;2.138;2023-05-19T20:00:17;1.05;;;0.95;;
44824;SDS011;30542;47.928;2.138;2023-05-19T20:05:18;0.93;;;0.93;;
44824;SDS011;30542;47.928;2.138;2023-05-19T20:10:18;1.80;;;1.38;;
44824;SDS011;30542;47.928;2.138;2023-05-19T20:15:19;1.03;;;0.97;;
44824;SDS011;30542;47.928;2.138;2023-05-19T20:20:19;1.00;;;0.90;;
44824;SDS011;30542;47.928;2.138;2023-05-19T20:25:19;1.20;;;1.10;;
44824;SDS011;30542;47.928;2.138;2023-05-19T20:30:20;1.37;;;1.27;;
44824;SDS011;30542;47.928;2.138;2023-05-19T20:35:20;1.83;;;1.25;;
44824;SDS011;30542;47.928;2.138;2023-05-19T20:40:21;1.67;;;1.15;;
44824;SDS011;30542;47.928;2.138;2023-05-19T20:45:21;1.30;;;1.20;;
44824;SDS011;30542;47.928;2.138;2023-05-19T20:50:22;1.03;;;0.93;;
44824;SDS011;30542;47.928;2.138;2023-05-19T20:55:22;1.63;;;1.10;;
44824;SDS011;30542;47.928;2.138;2023-05-19T21:00:22;1.40;;;1.30;;
44824;SDS011;30542;47.928;2.138;2023-05-19T21:05:23;1.70;;;1.25;;
44824;SDS011;30542;47.928;2.138;2023-05-19T21:10:23;1.80;;;1.33;;
44824;SDS011;30542;47.928;2.138;2023-05-19T21:15:23;1.27;;;1.17;;
44824;SDS011;30542;47.928;2.138;2023-05-19T21:20:25;1.33;;;1.23;;
44824;SDS011;30542;47.928;2.138;2023-05-19T21:25:26;1.55;;;1.20;;
44824;SDS011;30542;47.928;2.138;2023-05-19T21:30:27;1.30;;;1.20;;
44824;SDS011;30542;47.928;2.138;2023-05-19T21:35:27;1.23;;;1.13;;
44824;SDS011;30542;47.928;2.138;2023-05-19T21:40:27;1.53;;;1.43;;
44824;SDS011;30542;47.928;2.138;2023-05-19T21:45:28;1.20;;;1.10;;
44824;SDS011;30542;47.928;2.138;2023-05-19T21:50:28;1.00;;;0.90;;
44824;SDS011;30542;47.928;2.138;2023-05-19T21:55:28;1.77;;;1.10;;
44824;SDS011;30542;47.928;2.138;2023-05-19T22:00:28;0.90;;;0.90;;
44824;SDS011;30542;47.928;2.138;2023-05-19T22:05:29;1.50;;;1.40;;
44824;SDS011;30542;47.928;2.138;2023-05-19T22:10:30;1.45;;;1.35;;
44824;SDS011;30542;47.928;2.138;2023-05-19T22:15:30;1.20;;;1.10;;
44824;SDS011;30542;47.928;2.138;2023-05-19T22:20:31;1.50;;;1.30;;
44824;SDS011;30542;47.928;2.138;2023-05-19T22:25:31;1.53;;;1.00;;
44824;SDS011;30542;47.928;2.138;2023-05-19T22:30:31;1.17;;;1.07;;
44824;SDS011;30542;47.928;2.138;2023-05-19T22:35:32;1.52;;;1.00;;
44824;SDS011;30542;47.928;2.138;2023-05-19T22:40:32;1.42;;;1.30;;
44824;SDS011;30542;47.928;2.138;2023-05-19T22:45:33;1.30;;;1.10;;
44824;SDS011;30542;47.928;2.138;2023-05-19T22:50:34;1.42;;;1.33;;
44824;SDS011;30542;47.928;2.138;2023-05-19T22:55:34;1.40;;;1.20;;
44824;SDS011;30542;47.928;2.138;2023-05-19T23:00:35;1.45;;;1.35;;
44824;SDS011;30542;47.928;2.138;2023-05-19T23:05:36;1.10;;;1.00;;
44824;SDS011;30542;47.928;2.138;2023-05-19T23:10:37;1.30;;;1.20;;
44824;SDS011;30542;47.928;2.138;2023-05-19T23:15:37;1.57;;;1.47;;
44824;SDS011;30542;47.928;2.138;2023-05-19T23:20:37;1.30;;;1.10;;
44824;SDS011;30542;47.928;2.138;2023-05-19T23:25:38;1.15;;;1.10;;
44824;SDS011;30542;47.928;2.138;2023-05-19T23:30:38;1.77;;;1.20;;
44824;SDS011;30542;47.928;2.138;2023-05-19T23:35:39;1.52;;;1.25;;
44824;SDS011;30542;47.928;2.138;2023-05-19T23:40:39;1.35;;;1.10;;
44824;SDS011;30542;47.928;2.138;2023-05-19T23:45:40;1.48;;;1.38;;
44824;SDS011;30542;47.928;2.138;2023-05-19T23:50:40;1.38;;;1.27;;
44824;SDS011;30542;47.928;2.138;2023-05-19T23:55:41;1.17;;;1.10;;
